createdAt,value
2022-08-16T00:00:38.581Z,16.77
2022-08-16T00:03:41.537Z,15.80
2022-08-16T00:06:44.728Z,15.63
2022-08-16T00:09:47.261Z,16.02
2022-08-16T00:12:50.998Z,14.48
2022-08-16T00:15:54.093Z,15.63
2022-08-16T00:18:56.768Z,15.35
2022-08-16T00:22:03.103Z,17.25
2022-08-16T00:25:12.514Z,17.13
2022-08-16T00:28:15.087Z,17.70
2022-08-16T00:31:17.990Z,19.43
2022-08-16T00:34:44.273Z,18.13
2022-08-16T00:37:57.728Z,17.42
2022-08-16T00:41:02.625Z,18.75
2022-08-16T00:44:11.180Z,16.00
2022-08-16T00:47:18.131Z,15.27
2022-08-16T00:50:35.790Z,16.95
2022-08-16T00:53:39.445Z,16.92
2022-08-16T00:56:57.213Z,18.77
2022-08-16T01:00:03.238Z,19.08
2022-08-16T01:03:11.701Z,18.27
2022-08-16T01:06:39.964Z,16.63
2022-08-16T01:09:43.159Z,16.73
2022-08-16T01:12:45.739Z,16.55
2022-08-16T01:15:55.263Z,16.73
2022-08-16T01:19:33.379Z,14.80
2022-08-16T01:22:52.885Z,17.20
2022-08-16T01:26:33.689Z,15.93
2022-08-16T01:29:55.983Z,19.88
2022-08-16T01:33:15.052Z,16.17
2022-08-16T01:36:19.156Z,15.77
2022-08-16T01:39:30.106Z,17.42
2022-08-16T01:42:37.185Z,16.45
2022-08-16T01:45:44.880Z,15.35
2022-08-16T01:48:54.951Z,16.37
2022-08-16T01:52:02.505Z,15.07
2022-08-16T01:55:27.448Z,18.38
2022-08-16T01:58:38.591Z,15.80
2022-08-16T02:01:59.951Z,16.77
2022-08-16T02:05:05.527Z,15.90
2022-08-16T02:08:09.214Z,15.57
2022-08-16T02:11:48.536Z,16.10
2022-08-16T02:14:54.430Z,17.58
2022-08-16T02:17:59.304Z,17.42
2022-08-16T02:21:06.951Z,15.13
2022-08-16T02:24:31.400Z,17.40
2022-08-16T02:27:33.826Z,15.35
2022-08-16T02:30:44.970Z,14.25
2022-08-16T02:33:53.699Z,17.35
2022-08-16T02:37:06.535Z,15.52
2022-08-16T02:40:13.236Z,14.53
2022-08-16T02:43:19.071Z,14.32
2022-08-16T02:46:33.470Z,15.63
2022-08-16T02:50:52.765Z,19.15
2022-08-16T02:53:01.120Z,16.53
2022-08-16T02:56:05.681Z,16.13
2022-08-16T02:59:14.474Z,14.02
2022-08-16T03:02:18.813Z,15.50
2022-08-16T03:05:34.104Z,16.52
2022-08-16T03:08:52.625Z,14.07
2022-08-16T03:11:58.759Z,14.07
2022-08-16T03:15:04.801Z,14.27
2022-08-16T03:18:12.517Z,13.68
2022-08-16T03:21:37.981Z,15.07
2022-08-16T03:24:42.410Z,14.43
2022-08-16T03:27:47.547Z,14.30
2022-08-16T03:30:53.652Z,14.07
2022-08-16T03:33:59.098Z,14.07
2022-08-16T03:37:02.950Z,17.90
2022-08-16T03:40:06.908Z,15.05
2022-08-16T03:43:19.995Z,17.30
2022-08-16T03:46:45.038Z,14.93
2022-08-16T03:49:51.605Z,13.90
2022-08-16T03:53:01.295Z,15.18
2022-08-16T03:56:19.643Z,14.37
2022-08-16T03:59:24.381Z,16.60
2022-08-16T04:02:31.244Z,15.13
2022-08-16T04:05:39.611Z,16.17
2022-08-16T04:08:42.405Z,14.93
2022-08-16T04:11:47.820Z,12.93
2022-08-16T04:14:50.503Z,14.47
2022-08-16T04:17:56.405Z,13.93
2022-08-16T04:21:00.359Z,14.10
2022-08-16T04:24:07.913Z,14.55
2022-08-16T04:27:11.789Z,14.73
2022-08-16T04:30:35.013Z,14.03
2022-08-16T04:33:39.651Z,16.38
2022-08-16T04:36:56.533Z,15.23
2022-08-16T04:39:59.657Z,15.23
2022-08-16T04:43:08.333Z,16.90
2022-08-16T04:47:00.074Z,13.67
2022-08-16T04:49:44.066Z,14.40
2022-08-16T04:52:51.515Z,16.58
2022-08-16T04:55:58.545Z,15.57
2022-08-16T04:59:01.968Z,15.90
2022-08-16T05:02:04.623Z,13.23
2022-08-16T05:05:32.971Z,15.25
2022-08-16T05:08:49.212Z,15.20
2022-08-16T05:11:59.477Z,15.20
2022-08-16T05:15:05.557Z,15.40
2022-08-16T05:18:15.802Z,13.10
2022-08-16T05:21:28.436Z,12.48
2022-08-16T05:24:41.355Z,12.55
2022-08-16T05:27:47.733Z,13.30
2022-08-16T05:30:54.689Z,15.98
2022-08-16T05:34:03.194Z,11.30
2022-08-16T05:37:08.032Z,11.43
2022-08-16T05:40:13.729Z,13.30
2022-08-16T05:43:18.876Z,14.88
2022-08-16T05:46:30.375Z,10.35
2022-08-16T05:49:40.306Z,15.03
2022-08-16T05:52:46.740Z,11.25
2022-08-16T05:55:51.004Z,11.65
2022-08-16T05:58:54.456Z,13.15
2022-08-16T06:01:58.147Z,12.93
2022-08-16T06:05:10.981Z,11.77
2022-08-16T06:08:30.855Z,11.85
2022-08-16T06:11:37.943Z,14.27
2022-08-16T06:14:45.727Z,11.90
2022-08-16T06:17:51.675Z,11.77
2022-08-16T06:21:00.219Z,12.67
2022-08-16T06:24:52.687Z,13.18
2022-08-16T06:27:26.584Z,11.15
2022-08-16T06:30:45.253Z,9.55
2022-08-16T06:33:51.742Z,12.07
2022-08-16T06:36:59.462Z,10.00
2022-08-16T06:40:05.150Z,9.90
2022-08-16T06:43:20.708Z,9.45
2022-08-16T06:46:37.748Z,8.95
2022-08-16T06:49:52.848Z,10.52
2022-08-16T06:53:08.931Z,11.67
2022-08-16T06:56:19.761Z,10.52
2022-08-16T06:59:58.325Z,10.35
2022-08-16T07:03:26.830Z,12.15
2022-08-16T07:06:31.471Z,16.88
2022-08-16T07:09:37.422Z,9.67
2022-08-16T07:12:47.365Z,10.40
2022-08-16T07:16:05.669Z,13.23
2022-08-16T07:19:10.351Z,8.80
2022-08-16T07:22:36.525Z,10.63
2022-08-16T07:25:46.062Z,10.13
2022-08-16T07:28:49.254Z,10.32
2022-08-16T07:31:54.008Z,14.82
2022-08-16T07:34:56.855Z,10.35
2022-08-16T07:38:02.108Z,8.77
2022-08-16T07:41:18.600Z,9.83
2022-08-16T07:44:25.800Z,10.43
2022-08-16T07:47:31.609Z,9.38
2022-08-16T07:50:56.660Z,10.52
2022-08-16T07:54:09.640Z,7.90
2022-08-16T07:57:19.027Z,7.97
2022-08-16T08:00:26.418Z,7.90
2022-08-16T08:03:39.254Z,8.60
2022-08-16T08:06:46.217Z,9.30
2022-08-16T08:09:54.341Z,9.68
2022-08-16T08:12:59.332Z,10.90
2022-08-16T08:16:02.781Z,9.48
2022-08-16T08:19:10.536Z,9.00
2022-08-16T08:22:19.444Z,9.05
2022-08-16T08:25:54.577Z,10.30
2022-08-16T08:28:52.986Z,9.73
2022-08-16T08:31:57.775Z,16.00
2022-08-16T08:35:03.735Z,8.45
2022-08-16T08:38:08.844Z,8.82
2022-08-16T08:41:19.751Z,9.52
2022-08-16T08:44:31.864Z,9.40
2022-08-16T08:47:40.597Z,9.43
2022-08-16T08:50:50.000Z,8.82
2022-08-16T08:53:57.568Z,7.30
2022-08-16T08:57:05.899Z,10.20
2022-08-16T09:00:21.195Z,7.70
2022-08-16T09:03:24.812Z,11.05
2022-08-16T09:06:32.562Z,9.77
2022-08-16T09:09:37.791Z,10.65
2022-08-16T09:12:47.770Z,13.10
2022-08-16T09:15:59.964Z,8.47
2022-08-16T09:19:02.791Z,9.15
2022-08-16T09:22:07.213Z,8.98
2022-08-16T09:25:23.595Z,8.18
2022-08-16T09:29:15.438Z,9.30
2022-08-16T09:31:58.273Z,7.83
2022-08-16T09:35:01.583Z,8.93
2022-08-16T09:38:04.515Z,8.10
2022-08-16T09:41:28.337Z,9.55
2022-08-16T09:45:11.908Z,6.97
2022-08-16T09:47:57.320Z,9.87
2022-08-16T09:51:00.979Z,9.05
2022-08-16T09:54:05.472Z,8.45
2022-08-16T09:57:12.398Z,11.65
2022-08-16T10:00:42.704Z,7.38
2022-08-16T10:04:01.261Z,10.37
2022-08-16T10:07:15.253Z,10.70
2022-08-16T10:10:30.485Z,11.32
2022-08-16T10:13:34.502Z,11.77
2022-08-16T10:16:38.870Z,9.50
2022-08-16T10:19:41.567Z,8.80
2022-08-16T10:22:46.007Z,9.50
2022-08-16T10:27:17.954Z,12.98
2022-08-16T10:29:12.211Z,9.30
2022-08-16T10:32:22.787Z,9.48
2022-08-16T10:35:32.739Z,8.47
2022-08-16T10:38:38.706Z,8.90
2022-08-16T10:41:41.364Z,9.15
2022-08-16T10:44:55.013Z,10.43
2022-08-16T10:48:00.637Z,9.05
2022-08-16T10:51:10.299Z,8.03
2022-08-16T10:54:28.286Z,8.52
2022-08-16T10:57:32.841Z,7.50
2022-08-16T11:00:43.088Z,9.80
2022-08-16T11:03:54.123Z,8.00
2022-08-16T11:14:05.976Z,8.98
2022-08-16T11:17:13.499Z,9.02
2022-08-16T11:23:56.803Z,8.03
2022-08-16T11:30:38.554Z,8.43
2022-08-16T11:33:57.081Z,8.80
2022-08-16T11:37:01.711Z,9.05
2022-08-16T11:40:06.766Z,10.80
2022-08-16T11:43:16.973Z,9.05
2022-08-16T11:46:44.706Z,11.50
2022-08-16T11:49:43.344Z,7.72
2022-08-16T11:52:46.450Z,7.68
2022-08-16T11:55:54.993Z,8.50
2022-08-16T11:58:58.045Z,9.20
2022-08-16T12:02:30.664Z,9.35
2022-08-16T12:05:24.597Z,9.13
2022-08-16T12:08:28.770Z,7.97
2022-08-16T12:11:33.188Z,8.67
2022-08-16T12:14:37.689Z,10.15
2022-08-16T12:17:41.376Z,13.50
2022-08-16T12:20:45.973Z,8.35
2022-08-16T12:23:48.921Z,10.05
2022-08-16T12:26:54.144Z,11.57
2022-08-16T12:29:58.564Z,11.07
2022-08-16T12:33:03.960Z,9.50
2022-08-16T12:36:09.933Z,8.43
2022-08-16T12:39:17.572Z,10.25
2022-08-16T12:42:35.169Z,8.90
2022-08-16T12:45:41.540Z,9.40
2022-08-16T12:48:58.028Z,9.85
2022-08-16T12:52:01.203Z,9.68
2022-08-16T12:55:07.009Z,8.77
2022-08-16T12:58:14.055Z,7.70
2022-08-16T13:01:34.435Z,9.82
2022-08-16T13:04:37.693Z,9.70
2022-08-16T13:07:51.426Z,9.23
2022-08-16T13:10:57.117Z,8.15
2022-08-16T13:13:59.540Z,9.97
2022-08-16T13:17:06.460Z,8.52
2022-08-16T13:20:16.712Z,21.40
2022-08-16T13:23:20.045Z,14.02
2022-08-16T13:26:23.422Z,8.52
2022-08-16T13:29:26.074Z,8.43
2022-08-16T13:32:42.739Z,10.70
2022-08-16T13:35:55.950Z,7.85
2022-08-16T13:39:03.759Z,13.50
2022-08-16T13:42:11.875Z,11.02
2022-08-16T13:45:16.095Z,9.23
2022-08-16T13:48:21.772Z,13.05
2022-08-16T13:51:29.343Z,11.13
2022-08-16T13:54:33.262Z,10.55
2022-08-16T13:58:26.807Z,9.98
2022-08-16T14:01:00.709Z,7.63
2022-08-16T14:04:05.406Z,10.25
2022-08-16T14:07:12.033Z,8.10
2022-08-16T14:10:18.232Z,9.85
2022-08-16T14:13:21.770Z,7.93
2022-08-16T14:16:34.261Z,7.57
2022-08-16T14:19:37.446Z,6.50
2022-08-16T14:22:52.476Z,7.97
2022-08-16T14:25:57.705Z,7.47
2022-08-16T14:29:03.630Z,8.73
2022-08-16T14:32:08.373Z,8.87
2022-08-16T14:35:15.678Z,8.23
2022-08-16T14:38:23.922Z,9.63
2022-08-16T14:41:29.018Z,9.75
2022-08-16T14:44:32.242Z,13.20
2022-08-16T14:47:37.365Z,10.83
2022-08-16T14:50:42.059Z,8.23
2022-08-16T14:53:45.370Z,9.23
2022-08-16T14:56:54.527Z,9.27
2022-08-16T15:00:04.709Z,9.15
2022-08-16T15:03:10.723Z,11.63
2022-08-16T15:06:14.338Z,10.35
2022-08-16T15:09:17.664Z,10.18
2022-08-16T15:12:27.162Z,9.63
2022-08-16T15:15:37.819Z,12.20
2022-08-16T15:18:40.605Z,9.93
2022-08-16T15:21:43.792Z,9.30
2022-08-16T15:24:46.153Z,8.20
2022-08-16T15:27:54.794Z,9.18
2022-08-16T15:31:03.989Z,11.82
2022-08-16T15:34:07.111Z,9.00
2022-08-16T15:37:15.656Z,9.13
2022-08-16T15:40:32.256Z,9.25
2022-08-16T15:43:39.731Z,10.93
2022-08-16T15:46:57.083Z,10.00
2022-08-16T15:50:04.499Z,10.70
2022-08-16T15:53:14.702Z,10.45
2022-08-16T15:56:17.076Z,10.13
2022-08-16T15:59:23.436Z,12.85
2022-08-16T16:02:31.162Z,12.25
2022-08-16T16:05:35.983Z,10.57
2022-08-16T16:08:38.960Z,8.90
2022-08-16T16:11:45.743Z,10.63
2022-08-16T16:14:48.593Z,10.30
2022-08-16T16:17:54.305Z,8.88
2022-08-16T16:21:20.544Z,11.83
2022-08-16T16:24:30.569Z,9.38
2022-08-16T16:27:34.545Z,8.80
2022-08-16T16:30:44.451Z,10.45
2022-08-16T16:33:52.012Z,7.00
2022-08-16T16:36:56.160Z,10.77
2022-08-16T16:40:02.414Z,7.68
2022-08-16T16:43:08.589Z,8.10
2022-08-16T16:46:40.139Z,7.45
2022-08-16T16:49:42.490Z,8.07
2022-08-16T16:52:45.401Z,8.83
2022-08-16T16:55:52.140Z,7.78
2022-08-16T16:59:01.023Z,9.60
2022-08-16T17:02:38.706Z,9.00
2022-08-16T17:05:27.284Z,8.90
2022-08-16T17:08:35.207Z,9.07
2022-08-16T17:11:41.388Z,8.60
2022-08-16T17:14:43.810Z,8.40
2022-08-16T17:18:00.388Z,8.52
2022-08-16T17:21:05.647Z,9.65
2022-08-16T17:24:17.454Z,10.00
2022-08-16T17:27:32.410Z,7.60
2022-08-16T17:30:44.905Z,10.82
2022-08-16T17:33:54.393Z,9.57
2022-08-16T17:36:58.922Z,7.43
2022-08-16T17:40:33.993Z,8.97
2022-08-16T17:43:44.191Z,9.60
2022-08-16T17:46:52.489Z,8.45
2022-08-16T17:49:55.377Z,9.48
2022-08-16T17:52:57.891Z,10.40
2022-08-16T17:56:00.613Z,9.33
2022-08-16T17:59:03.154Z,9.63
2022-08-16T18:02:42.472Z,10.40
2022-08-16T18:05:29.875Z,17.38
2022-08-16T18:08:33.539Z,12.48
2022-08-16T18:11:41.205Z,10.77
2022-08-16T18:14:51.064Z,9.23
2022-08-16T18:17:55.081Z,11.50
2022-08-16T18:21:18.919Z,9.05
2022-08-16T18:24:21.327Z,9.30
2022-08-16T18:27:26.107Z,10.67
2022-08-16T18:30:31.929Z,8.90
2022-08-16T18:33:41.321Z,10.75
2022-08-16T18:36:46.879Z,10.20
2022-08-16T18:39:49.382Z,10.05
2022-08-16T18:43:00.828Z,12.93
2022-08-16T18:46:03.203Z,11.10
2022-08-16T18:49:05.852Z,9.90
2022-08-16T18:52:08.329Z,9.52
2022-08-16T18:55:14.634Z,9.73
2022-08-16T18:58:17.664Z,9.60
2022-08-16T19:01:20.422Z,7.93
2022-08-16T19:04:55.673Z,9.70
2022-08-16T19:07:45.410Z,10.10
2022-08-16T19:10:49.651Z,11.80
2022-08-16T19:13:52.335Z,10.00
2022-08-16T19:16:56.416Z,9.65
2022-08-16T19:19:59.257Z,9.05
2022-08-16T19:23:06.161Z,11.13
2022-08-16T19:26:25.685Z,11.10
2022-08-16T19:29:29.058Z,10.50
2022-08-16T19:32:32.027Z,9.65
2022-08-16T19:35:34.960Z,9.35
2022-08-16T19:38:37.763Z,10.95
2022-08-16T19:41:46.017Z,8.77
2022-08-16T19:44:49.880Z,9.80
2022-08-16T19:47:55.544Z,9.10
2022-08-16T19:51:00.205Z,9.55
2022-08-16T19:54:02.678Z,10.40
2022-08-16T19:57:06.052Z,10.90
2022-08-16T20:00:14.724Z,10.67
2022-08-16T20:03:22.525Z,9.27
2022-08-16T20:06:37.743Z,9.68
2022-08-16T20:09:41.825Z,9.07
2022-08-16T20:12:58.403Z,10.32
2022-08-16T20:16:05.099Z,8.60
2022-08-16T20:19:07.480Z,9.50
2022-08-16T20:22:49.807Z,10.20
2022-08-16T20:25:49.693Z,9.02
2022-08-16T20:28:54.857Z,11.27
2022-08-16T20:31:57.843Z,9.70
2022-08-16T20:35:01.027Z,10.82
2022-08-16T20:38:04.325Z,8.85
2022-08-16T20:41:06.736Z,9.90
2022-08-16T20:44:10.479Z,11.95
2022-08-16T20:47:13.255Z,11.50
2022-08-16T20:50:16.499Z,9.88
2022-08-16T20:53:18.970Z,11.75
2022-08-16T20:56:21.452Z,8.52
2022-08-16T20:59:23.946Z,9.27
2022-08-16T21:02:27.221Z,9.17
2022-08-16T21:05:31.288Z,11.35
2022-08-16T21:08:52.594Z,12.38
2022-08-16T21:11:57.672Z,12.88
2022-08-16T21:15:06.420Z,10.38
2022-08-16T21:18:09.248Z,11.80
2022-08-16T21:21:12.202Z,11.40
2022-08-16T21:24:15.660Z,9.05
2022-08-16T21:27:18.520Z,9.20
2022-08-16T21:30:24.017Z,9.90
2022-08-16T21:33:31.707Z,8.80
2022-08-16T21:36:36.336Z,8.77
2022-08-16T21:39:39.591Z,8.82
2022-08-16T21:42:42.920Z,9.85
2022-08-16T21:45:46.636Z,8.95
2022-08-16T21:48:49.046Z,8.70
2022-08-16T21:51:51.601Z,10.20
2022-08-16T21:54:56.853Z,10.27
2022-08-16T21:57:59.346Z,10.48
2022-08-16T22:01:02.944Z,11.35
2022-08-16T22:04:36.554Z,10.30
2022-08-16T22:07:27.985Z,9.73
2022-08-16T22:11:04.434Z,10.10
2022-08-16T22:13:58.528Z,9.57
2022-08-16T22:17:02.369Z,9.80
2022-08-16T22:20:09.162Z,8.40
2022-08-16T22:23:22.844Z,9.98
2022-08-16T22:26:32.026Z,9.90
2022-08-16T22:29:34.735Z,10.85
2022-08-16T22:32:43.993Z,9.52
2022-08-16T22:35:54.398Z,11.80
2022-08-16T22:39:03.650Z,12.40
2022-08-16T22:42:08.451Z,11.80
2022-08-16T22:45:12.316Z,11.63
2022-08-16T22:48:16.220Z,10.10
2022-08-16T22:51:20.335Z,10.80
2022-08-16T22:54:42.546Z,10.15
2022-08-16T22:57:45.965Z,14.32
2022-08-16T23:00:49.390Z,10.88
2022-08-16T23:03:55.336Z,12.15
2022-08-16T23:06:57.869Z,9.10
2022-08-16T23:10:01.512Z,10.80
2022-08-16T23:13:06.582Z,10.27
2022-08-16T23:16:11.210Z,8.93
2022-08-16T23:19:15.686Z,14.80
2022-08-16T23:22:18.035Z,11.80
2022-08-16T23:25:30.804Z,8.73
2022-08-16T23:28:33.265Z,10.07
2022-08-16T23:31:35.978Z,10.48
2022-08-16T23:34:38.450Z,13.63
2022-08-16T23:37:40.902Z,11.30
2022-08-16T23:40:46.140Z,9.48
2022-08-16T23:43:48.521Z,13.40
2022-08-16T23:46:50.895Z,10.63
2022-08-16T23:50:00.049Z,9.38
2022-08-16T23:53:13.780Z,10.13
2022-08-16T23:56:18.805Z,9.48
2022-08-16T23:59:21.257Z,9.20
